Terminal Aerodrome Forecast
Issued by NWS Newport/Morehead City, NC

Home | Current Version | Previous Version | Text Only | Print | Product List | Glossary On
Versions: 1 2 3 4 5 6 7 8 9 10 11 12 13 14 15 16 17 18 19
000
FTUS42 KMHX 230601 CCA
TAFEWN
TAF COR
KEWN 230601Z 2306/2406 VRB03KT 2SM BR SCT005
     FM230800 VRB03KT 1SM BR OVC005
     FM231000 VRB03KT 2SM BR SCT005 OVC012
     FM231400 00000KT P6SM BKN025
     FM231600 19005KT P6SM SCT040=

USA.gov is the U.S. government's official web portal to all federal, state and local government web resources and services.